createdAt,value
2017-08-01T00:01:54.410Z,2.80
2017-08-01T00:04:21.820Z,3.20
2017-08-01T00:06:49.204Z,3.20
2017-08-01T00:09:16.607Z,3.30
2017-08-01T00:11:43.988Z,2.60
2017-08-01T00:14:11.389Z,2.80
2017-08-01T00:16:38.783Z,3.20
2017-08-01T00:19:06.175Z,2.90
2017-08-01T00:21:33.568Z,3.10
2017-08-01T00:24:00.958Z,3.00
2017-08-01T00:26:28.391Z,3.00
2017-08-01T00:28:55.792Z,2.80
2017-08-01T00:31:23.174Z,3.07
2017-08-01T00:33:50.570Z,3.40
2017-08-01T00:36:17.960Z,3.17
2017-08-01T00:38:45.374Z,2.90
2017-08-01T00:41:12.820Z,2.80
2017-08-01T00:43:40.207Z,3.03
2017-08-01T00:46:07.603Z,2.97
2017-08-01T00:48:34.983Z,2.70
2017-08-01T00:51:02.388Z,2.23
2017-08-01T00:53:29.770Z,2.57
2017-08-01T00:55:57.159Z,2.87
2017-08-01T00:58:24.552Z,2.80
2017-08-01T01:00:52.945Z,2.53
2017-08-01T01:03:20.548Z,3.37
2017-08-01T01:05:48.195Z,2.83
2017-08-01T01:08:15.571Z,2.83
2017-08-01T01:10:42.975Z,2.90
2017-08-01T01:13:10.367Z,3.00
2017-08-01T01:15:37.759Z,3.00
2017-08-01T01:18:05.155Z,3.23
2017-08-01T01:20:32.546Z,2.70
2017-08-01T01:22:59.932Z,3.00
2017-08-01T01:25:27.323Z,3.40
2017-08-01T01:27:54.715Z,2.50
2017-08-01T01:30:22.108Z,2.80
2017-08-01T01:32:49.510Z,2.83
2017-08-01T01:35:16.895Z,2.87
2017-08-01T01:37:44.307Z,2.50
2017-08-01T01:40:11.688Z,2.67
2017-08-01T01:42:39.299Z,2.10
2017-08-01T01:45:06.684Z,2.30
2017-08-01T01:47:34.087Z,3.27
2017-08-01T01:50:01.486Z,2.80
2017-08-01T01:52:28.860Z,2.83
2017-08-01T01:54:56.258Z,2.73
2017-08-01T01:57:23.650Z,2.70
2017-08-01T01:59:51.036Z,2.97
2017-08-01T02:02:18.436Z,3.27
2017-08-01T02:04:45.827Z,3.40
2017-08-01T02:07:13.219Z,2.80
2017-08-01T02:09:40.620Z,3.00
2017-08-01T02:12:08.011Z,3.00
2017-08-01T02:14:35.407Z,3.93
2017-08-01T02:17:02.799Z,2.57
2017-08-01T02:19:30.203Z,3.07
2017-08-01T02:21:57.593Z,2.43
2017-08-01T02:24:24.974Z,2.67
2017-08-01T02:26:52.379Z,2.70
2017-08-01T02:29:19.770Z,2.57
2017-08-01T02:31:47.175Z,3.03
2017-08-01T02:34:14.569Z,2.90
2017-08-01T02:36:41.962Z,2.17
2017-08-01T02:39:09.352Z,2.63
2017-08-01T02:41:36.735Z,2.43
2017-08-01T02:44:04.135Z,2.70
2017-08-01T02:46:31.524Z,2.30
2017-08-01T02:48:58.935Z,2.37
2017-08-01T02:51:26.323Z,2.67
2017-08-01T02:53:53.718Z,2.13
2017-08-01T02:56:21.115Z,1.90
2017-08-01T02:58:48.663Z,2.70
2017-08-01T03:01:16.056Z,2.23
2017-08-01T03:03:43.443Z,3.13
2017-08-01T03:06:10.867Z,2.70
2017-08-01T03:08:38.244Z,2.20
2017-08-01T03:11:05.640Z,3.17
2017-08-01T03:13:33.115Z,2.80
2017-08-01T03:16:00.500Z,2.93
2017-08-01T03:18:27.892Z,3.43
2017-08-01T03:20:55.287Z,3.10
2017-08-01T03:23:22.683Z,2.43
2017-08-01T03:25:50.071Z,2.80
2017-08-01T03:28:17.473Z,2.57
2017-08-01T03:30:44.860Z,2.80
2017-08-01T03:33:12.265Z,2.40
2017-08-01T03:35:39.664Z,3.10
2017-08-01T03:38:07.056Z,2.67
2017-08-01T03:40:34.445Z,2.37
2017-08-01T03:43:01.826Z,2.97
2017-08-01T03:45:29.234Z,2.73
2017-08-01T03:47:56.648Z,3.20
2017-08-01T03:50:24.050Z,2.60
2017-08-01T03:52:51.436Z,2.70
2017-08-01T03:55:18.827Z,2.63
2017-08-01T03:57:46.232Z,3.17
2017-08-01T04:00:13.679Z,2.67
2017-08-01T04:02:41.052Z,2.73
2017-08-01T04:05:08.446Z,2.60
2017-08-01T04:07:35.826Z,2.73
2017-08-01T04:10:03.224Z,2.57
2017-08-01T04:12:30.610Z,2.07
2017-08-01T04:14:58.016Z,2.80
2017-08-01T04:17:25.413Z,2.60
2017-08-01T04:19:52.817Z,2.87
2017-08-01T04:22:20.239Z,3.00
2017-08-01T04:24:47.615Z,2.67
2017-08-01T04:27:15.015Z,3.53
2017-08-01T04:29:42.410Z,2.70
2017-08-01T04:32:09.810Z,3.03
2017-08-01T04:34:37.198Z,3.07
2017-08-01T04:37:04.602Z,3.20
2017-08-01T04:39:31.987Z,2.57
2017-08-01T04:41:59.393Z,3.00
2017-08-01T04:44:26.778Z,2.53
2017-08-01T04:46:54.175Z,2.97
2017-08-01T04:49:21.591Z,2.83
2017-08-01T04:51:49.000Z,2.57
2017-08-01T04:54:16.387Z,2.73
2017-08-01T04:56:43.789Z,2.70
2017-08-01T04:59:11.178Z,2.97
2017-08-01T05:01:38.571Z,2.53
2017-08-01T05:04:05.963Z,3.20
2017-08-01T05:06:33.371Z,3.40
2017-08-01T05:09:00.771Z,2.83
2017-08-01T05:11:28.169Z,2.67
2017-08-01T05:13:55.578Z,2.97
2017-08-01T05:16:22.976Z,2.83
2017-08-01T05:18:50.379Z,2.93
2017-08-01T05:21:17.767Z,3.10
2017-08-01T05:23:45.162Z,2.80
2017-08-01T05:26:12.554Z,3.10
2017-08-01T05:28:39.950Z,2.80
2017-08-01T05:31:07.355Z,2.80
2017-08-01T05:33:34.746Z,3.70
2017-08-01T05:36:02.130Z,3.70
2017-08-01T05:38:29.532Z,3.80
2017-08-01T05:40:56.955Z,3.10
2017-08-01T05:43:24.580Z,3.20
2017-08-01T05:45:51.990Z,3.20
2017-08-01T05:48:19.382Z,2.97
2017-08-01T05:50:46.790Z,2.67
2017-08-01T05:53:14.183Z,3.03
2017-08-01T05:55:42.254Z,3.50
2017-08-01T05:58:09.676Z,3.33
2017-08-01T06:00:37.060Z,3.57
2017-08-01T06:03:04.628Z,3.50
2017-08-01T06:05:32.042Z,3.07
2017-08-01T06:07:59.418Z,3.17
2017-08-01T06:10:26.810Z,3.30
2017-08-01T06:12:54.194Z,2.77
2017-08-01T06:15:21.590Z,3.03
2017-08-01T06:17:48.974Z,2.80
2017-08-01T06:20:16.373Z,2.83
2017-08-01T06:22:43.758Z,3.40
2017-08-01T06:25:11.158Z,3.00
2017-08-01T06:27:38.539Z,2.53
2017-08-01T06:30:05.932Z,2.83
2017-08-01T06:32:33.315Z,2.90
2017-08-01T06:35:00.715Z,3.47
2017-08-01T06:37:28.105Z,3.27
2017-08-01T06:39:55.503Z,2.50
2017-08-01T06:42:22.882Z,3.07
2017-08-01T06:44:50.278Z,2.90
2017-08-01T06:47:17.671Z,2.90
2017-08-01T06:49:45.062Z,3.10
2017-08-01T06:52:12.463Z,3.10
2017-08-01T06:54:39.858Z,2.80
2017-08-01T06:57:07.243Z,3.10
2017-08-01T06:59:34.635Z,2.93
2017-08-01T07:02:02.067Z,2.73
2017-08-01T07:04:29.454Z,3.03
2017-08-01T07:06:56.863Z,2.77
2017-08-01T07:09:24.251Z,2.83
2017-08-01T07:11:51.639Z,2.90
2017-08-01T07:14:19.022Z,2.47
2017-08-01T07:16:46.415Z,3.07
2017-08-01T07:19:13.809Z,3.00
2017-08-01T07:21:41.204Z,3.00
2017-08-01T07:24:08.611Z,2.97
2017-08-01T07:26:36.002Z,3.53
2017-08-01T07:29:03.386Z,3.43
2017-08-01T07:31:30.783Z,3.37
2017-08-01T07:33:58.171Z,3.47
2017-08-01T07:36:25.567Z,2.87
2017-08-01T07:38:52.958Z,3.40
2017-08-01T07:41:20.355Z,2.53
2017-08-01T07:43:47.750Z,2.60
2017-08-01T07:46:15.155Z,3.10
2017-08-01T07:48:42.535Z,3.00
2017-08-01T07:51:09.930Z,3.00
2017-08-01T07:53:37.319Z,3.10
2017-08-01T07:56:04.743Z,2.60
2017-08-01T07:58:32.138Z,3.23
2017-08-01T08:00:59.530Z,3.00
2017-08-01T08:03:26.935Z,2.80
2017-08-01T08:05:54.334Z,3.83
2017-08-01T08:08:21.759Z,3.57
2017-08-01T08:10:49.166Z,3.33
2017-08-01T08:13:16.576Z,3.80
2017-08-01T08:15:43.965Z,3.90
2017-08-01T08:18:11.361Z,3.40
2017-08-01T08:20:38.771Z,3.37
2017-08-01T08:23:06.166Z,3.13
2017-08-01T08:25:33.542Z,3.50
2017-08-01T08:28:00.942Z,2.97
2017-08-01T08:30:28.335Z,3.57
2017-08-01T08:32:58.038Z,3.40
2017-08-01T08:35:25.431Z,3.40
2017-08-01T08:37:52.834Z,3.40
2017-08-01T08:40:20.220Z,2.60
2017-08-01T08:42:47.602Z,2.87
2017-08-01T08:45:15.001Z,3.13
2017-08-01T08:47:42.406Z,3.33
2017-08-01T08:50:09.794Z,2.97
2017-08-01T08:52:37.198Z,3.03
2017-08-01T08:55:04.606Z,3.13
2017-08-01T08:57:32.218Z,4.10
2017-08-01T08:59:59.626Z,3.13
2017-08-01T09:02:27.015Z,3.20
2017-08-01T09:04:54.416Z,2.80
2017-08-01T09:07:21.798Z,3.20
2017-08-01T09:09:49.202Z,2.90
2017-08-01T09:12:16.598Z,2.17
2017-08-01T09:14:43.994Z,2.90
2017-08-01T09:17:11.387Z,2.80
2017-08-01T09:19:38.784Z,2.60
2017-08-01T09:22:06.176Z,3.10
2017-08-01T09:24:33.582Z,2.80
2017-08-01T09:27:01.032Z,3.30
2017-08-01T09:29:28.445Z,3.60
2017-08-01T09:31:55.867Z,2.87
2017-08-01T09:34:23.278Z,3.03
2017-08-01T09:36:50.879Z,3.37
2017-08-01T09:39:18.275Z,2.70
2017-08-01T09:41:45.667Z,2.43
2017-08-01T09:44:13.059Z,3.10
2017-08-01T09:46:40.450Z,3.33
2017-08-01T09:49:07.847Z,3.03
2017-08-01T09:51:35.258Z,3.07
2017-08-01T09:54:02.647Z,3.07
2017-08-01T09:56:30.046Z,3.53
2017-08-01T09:58:57.450Z,3.40
2017-08-01T10:01:24.848Z,2.90
2017-08-01T10:03:52.235Z,2.97
2017-08-01T10:06:19.627Z,3.23
2017-08-01T10:08:47.022Z,2.87
2017-08-01T10:11:14.423Z,3.83
2017-08-01T10:13:41.851Z,4.30
2017-08-01T10:16:09.265Z,3.77
2017-08-01T10:18:36.659Z,3.80
2017-08-01T10:21:04.080Z,4.00
2017-08-01T10:23:31.475Z,4.07
2017-08-01T10:25:58.859Z,3.40
2017-08-01T10:28:26.263Z,3.50
2017-08-01T10:30:53.684Z,3.73
2017-08-01T10:33:21.105Z,3.27
2017-08-01T10:35:48.490Z,4.10
2017-08-01T10:38:15.929Z,4.03
2017-08-01T10:40:43.316Z,3.90
2017-08-01T10:43:10.740Z,3.40
2017-08-01T10:45:38.116Z,3.70
2017-08-01T10:48:05.535Z,4.77
2017-08-01T10:50:32.922Z,4.30
2017-08-01T10:53:00.369Z,5.53
2017-08-01T10:55:27.747Z,4.17
2017-08-01T10:57:55.151Z,4.93
2017-08-01T11:00:22.534Z,4.30
2017-08-01T11:02:49.933Z,4.57
2017-08-01T11:05:17.330Z,4.57
2017-08-01T11:07:44.738Z,4.73
2017-08-01T11:10:12.154Z,4.67
2017-08-01T11:12:39.552Z,5.30
2017-08-01T11:15:07.062Z,4.63
2017-08-01T11:17:34.443Z,5.00
2017-08-01T11:20:01.874Z,5.07
2017-08-01T11:22:29.254Z,4.90
2017-08-01T11:24:56.656Z,6.13
2017-08-01T11:27:24.038Z,4.37
2017-08-01T11:29:51.434Z,4.57
2017-08-01T11:32:19.616Z,4.60
2017-08-01T11:34:47.020Z,4.50
2017-08-01T11:37:14.416Z,4.33
2017-08-01T11:39:41.819Z,5.03
2017-08-01T11:42:09.199Z,4.53
2017-08-01T11:44:36.599Z,4.93
2017-08-01T11:47:03.987Z,4.20
2017-08-01T11:49:31.438Z,4.23
2017-08-01T11:51:58.811Z,4.33
2017-08-01T11:54:26.211Z,4.60
2017-08-01T11:56:53.602Z,4.63
2017-08-01T11:59:21.004Z,5.20
2017-08-01T12:01:48.390Z,4.60
2017-08-01T12:04:15.796Z,5.30
2017-08-01T12:06:43.194Z,5.20
2017-08-01T12:09:10.588Z,5.00
2017-08-01T12:11:37.982Z,4.50
2017-08-01T12:14:05.370Z,5.60
2017-08-01T12:16:32.772Z,5.87
2017-08-01T12:19:00.171Z,5.57
2017-08-01T12:21:27.579Z,5.37
2017-08-01T12:23:54.974Z,5.10
2017-08-01T12:26:22.375Z,4.77
2017-08-01T12:28:49.770Z,5.23
2017-08-01T12:31:17.202Z,5.40
2017-08-01T12:33:44.589Z,4.87
2017-08-01T12:36:12.010Z,5.57
2017-08-01T12:38:39.391Z,4.63
2017-08-01T12:41:06.788Z,5.70
2017-08-01T12:43:34.171Z,5.50
2017-08-01T12:46:01.576Z,6.37
2017-08-01T12:48:28.975Z,6.63
2017-08-01T12:50:56.401Z,7.47
2017-08-01T12:53:23.774Z,6.90
2017-08-01T12:55:51.164Z,5.50
2017-08-01T12:58:18.564Z,7.20
2017-08-01T13:00:45.947Z,6.37
2017-08-01T13:03:13.351Z,5.87
2017-08-01T13:05:40.740Z,5.90
2017-08-01T13:08:08.132Z,5.53
2017-08-01T13:10:35.521Z,5.10
2017-08-01T13:13:02.910Z,4.57
2017-08-01T13:15:30.295Z,4.30
2017-08-01T13:17:57.690Z,4.60
2017-08-01T13:20:25.079Z,5.10
2017-08-01T13:22:52.494Z,3.80
2017-08-01T13:25:19.875Z,4.90
2017-08-01T13:27:47.280Z,3.80
2017-08-01T13:30:14.673Z,4.17
2017-08-01T13:32:42.065Z,4.40
2017-08-01T13:35:09.450Z,4.20
2017-08-01T13:37:36.848Z,4.73
2017-08-01T13:40:04.235Z,4.30
2017-08-01T13:42:31.647Z,4.50
2017-08-01T13:44:59.036Z,3.33
2017-08-01T13:47:26.428Z,5.60
2017-08-01T13:49:53.832Z,4.33
2017-08-01T13:52:21.224Z,4.20
2017-08-01T13:54:48.628Z,5.30
2017-08-01T13:57:16.011Z,4.40
2017-08-01T13:59:43.641Z,4.43
2017-08-01T14:02:11.040Z,5.60
2017-08-01T14:04:38.431Z,4.90
2017-08-01T14:07:05.823Z,5.40
2017-08-01T14:09:33.222Z,4.40
2017-08-01T14:12:00.928Z,4.57
2017-08-01T14:14:28.337Z,4.77
2017-08-01T14:16:55.754Z,3.70
2017-08-01T14:19:23.164Z,4.90
2017-08-01T14:21:50.547Z,4.27
2017-08-01T14:24:17.967Z,4.77
2017-08-01T14:26:45.356Z,5.10
2017-08-01T14:29:12.980Z,3.70
2017-08-01T14:31:40.377Z,4.67
2017-08-01T14:34:07.778Z,4.50
2017-08-01T14:36:35.167Z,5.27
2017-08-01T14:39:02.555Z,5.13
2017-08-01T14:41:29.958Z,5.70
2017-08-01T14:43:57.355Z,6.10
2017-08-01T14:46:24.766Z,6.67
2017-08-01T14:48:52.164Z,5.83
2017-08-01T14:51:21.770Z,5.10
2017-08-01T14:53:49.142Z,7.17
2017-08-01T14:56:16.562Z,6.27
2017-08-01T14:58:43.946Z,7.17
2017-08-01T15:01:11.350Z,6.60
2017-08-01T15:03:38.748Z,7.57
2017-08-01T15:06:06.347Z,7.47
2017-08-01T15:08:33.734Z,6.93
2017-08-01T15:11:01.128Z,6.83
2017-08-01T15:13:28.522Z,5.97
2017-08-01T15:15:55.925Z,6.70
2017-08-01T15:18:23.307Z,7.27
2017-08-01T15:20:50.711Z,7.63
2017-08-01T15:23:18.103Z,7.70
2017-08-01T15:25:45.503Z,7.20
2017-08-01T15:28:12.919Z,7.20
2017-08-01T15:30:40.359Z,7.90
2017-08-01T15:33:07.750Z,8.10
2017-08-01T15:35:35.146Z,8.00
2017-08-01T15:38:02.558Z,6.50
2017-08-01T15:40:29.946Z,7.27
2017-08-01T15:42:57.356Z,8.97
2017-08-01T15:45:24.739Z,6.67
2017-08-01T15:47:52.185Z,6.50
2017-08-01T15:50:19.571Z,5.60
2017-08-01T15:52:46.967Z,6.10
2017-08-01T15:55:14.359Z,5.10
2017-08-01T15:57:41.759Z,5.77
2017-08-01T16:00:09.152Z,5.20
2017-08-01T16:02:36.563Z,5.40
2017-08-01T16:05:03.954Z,4.90
2017-08-01T16:07:31.568Z,4.60
2017-08-01T16:09:58.963Z,4.80
2017-08-01T16:12:26.359Z,4.03
2017-08-01T16:14:53.744Z,4.97
2017-08-01T16:17:21.143Z,5.27
2017-08-01T16:19:48.532Z,4.50
2017-08-01T16:22:15.914Z,4.57
2017-08-01T16:24:43.303Z,4.77
2017-08-01T16:27:10.711Z,4.63
2017-08-01T16:29:38.115Z,4.57
2017-08-01T16:32:05.494Z,4.53
2017-08-01T16:34:32.896Z,4.83
2017-08-01T16:37:00.291Z,4.30
2017-08-01T16:39:27.698Z,4.70
2017-08-01T16:41:55.086Z,4.57
2017-08-01T16:44:22.490Z,4.83
2017-08-01T16:46:49.885Z,4.37
2017-08-01T16:49:17.298Z,4.70
2017-08-01T16:51:44.691Z,5.10
2017-08-01T16:54:12.114Z,5.00
2017-08-01T16:56:39.711Z,4.70
2017-08-01T16:59:07.112Z,3.73
2017-08-01T17:01:34.494Z,4.80
2017-08-01T17:04:01.892Z,4.47
2017-08-01T17:06:29.271Z,4.70
2017-08-01T17:08:56.671Z,3.83
2017-08-01T17:11:24.091Z,4.80
2017-08-01T17:13:51.523Z,5.60
2017-08-01T17:16:18.906Z,5.40
2017-08-01T17:18:46.299Z,4.10
2017-08-01T17:21:13.704Z,4.23
2017-08-01T17:23:41.099Z,4.37
2017-08-01T17:26:08.491Z,4.23
2017-08-01T17:28:35.878Z,4.40
2017-08-01T17:31:03.271Z,5.13
2017-08-01T17:33:30.662Z,4.80
2017-08-01T17:35:58.059Z,5.30
2017-08-01T17:38:25.442Z,5.10
2017-08-01T17:40:52.864Z,4.60
2017-08-01T17:43:20.255Z,3.93
2017-08-01T17:45:47.666Z,4.17
2017-08-01T17:48:15.056Z,4.60
2017-08-01T17:50:42.455Z,4.17
2017-08-01T17:53:09.842Z,4.33
2017-08-01T17:55:37.250Z,4.00
2017-08-01T17:58:04.651Z,4.13
2017-08-01T18:03:05.832Z,5.27
2017-08-01T18:05:33.203Z,5.00
2017-08-01T18:08:00.601Z,4.73
2017-08-01T18:10:27.994Z,5.43
2017-08-01T18:12:55.393Z,5.07
2017-08-01T18:15:22.802Z,5.90
2017-08-01T18:17:50.231Z,6.30
2017-08-01T18:20:17.831Z,6.70
2017-08-01T18:22:45.352Z,5.80
2017-08-01T18:25:12.779Z,7.90
2017-08-01T18:27:40.240Z,8.40
2017-08-01T18:30:07.651Z,8.83
2017-08-01T18:32:35.128Z,8.20
2017-08-01T18:35:02.521Z,9.40
2017-08-01T18:37:29.962Z,9.97
2017-08-01T18:39:57.363Z,10.10
2017-08-01T18:42:24.784Z,11.37
2017-08-01T18:44:52.170Z,11.87
2017-08-01T18:47:19.594Z,12.40
2017-08-01T18:49:47.002Z,13.57
2017-08-01T18:52:14.406Z,13.30
2017-08-01T18:54:41.798Z,13.37
2017-08-01T18:57:09.198Z,14.37
2017-08-01T18:59:36.603Z,13.93
2017-08-01T19:02:04.256Z,11.20
2017-08-01T19:04:31.658Z,12.53
2017-08-01T19:06:59.047Z,12.90
2017-08-01T19:09:26.459Z,11.10
2017-08-01T19:11:53.854Z,11.90
2017-08-01T19:14:21.267Z,11.40
2017-08-01T19:16:48.662Z,13.87
2017-08-01T19:19:16.143Z,11.03
2017-08-01T19:21:43.552Z,12.00
2017-08-01T19:24:10.951Z,13.77
2017-08-01T19:26:38.343Z,10.93
2017-08-01T19:29:05.745Z,11.53
2017-08-01T19:31:33.147Z,12.53
2017-08-01T19:34:00.771Z,11.10
2017-08-01T19:36:28.199Z,12.07
2017-08-01T19:38:55.600Z,9.97
2017-08-01T19:41:22.992Z,12.33
2017-08-01T19:43:50.391Z,9.93
2017-08-01T19:46:17.836Z,11.63
2017-08-01T19:48:45.236Z,11.80
2017-08-01T19:51:12.634Z,12.43
2017-08-01T19:53:40.052Z,13.20
2017-08-01T19:56:07.443Z,12.80
2017-08-01T19:58:34.850Z,12.77
2017-08-01T20:01:02.463Z,10.90
2017-08-01T20:03:29.871Z,10.77
2017-08-01T20:05:57.268Z,10.67
2017-08-01T20:08:24.697Z,10.80
2017-08-01T20:10:52.109Z,10.10
2017-08-01T20:13:19.497Z,11.43
2017-08-01T20:15:46.899Z,11.40
2017-08-01T20:18:14.371Z,10.03
2017-08-01T20:20:41.775Z,11.60
2017-08-01T20:23:09.183Z,10.07
2017-08-01T20:25:36.590Z,8.83
2017-08-01T20:28:03.967Z,10.20
2017-08-01T20:30:31.379Z,9.07
2017-08-01T20:32:58.772Z,10.23
2017-08-01T20:35:26.176Z,8.80
2017-08-01T20:37:53.566Z,8.50
2017-08-01T20:40:20.990Z,9.93
2017-08-01T20:42:48.420Z,8.50
2017-08-01T20:45:15.828Z,8.77
2017-08-01T20:47:43.219Z,7.20
2017-08-01T20:50:10.623Z,7.03
2017-08-01T20:52:38.019Z,8.40
2017-08-01T20:55:05.432Z,7.23
2017-08-01T20:57:32.848Z,6.70
2017-08-01T21:00:00.260Z,6.30
2017-08-01T21:02:27.646Z,6.70
2017-08-01T21:04:55.057Z,7.10
2017-08-01T21:07:22.495Z,6.83
2017-08-01T21:09:49.875Z,6.13
2017-08-01T21:12:17.267Z,6.50
2017-08-01T21:14:44.675Z,5.33
2017-08-01T21:17:12.282Z,5.17
2017-08-01T21:19:39.680Z,5.87
2017-08-01T21:22:07.288Z,6.20
2017-08-01T21:24:34.700Z,5.77
2017-08-01T21:27:02.159Z,7.17
2017-08-01T21:29:29.550Z,5.80
2017-08-01T21:31:59.504Z,6.07
2017-08-01T21:34:26.911Z,5.63
2017-08-01T21:36:54.311Z,5.67
2017-08-01T21:39:21.694Z,5.30
2017-08-01T21:41:49.090Z,7.10
2017-08-01T21:44:16.499Z,8.47
2017-08-01T21:46:43.890Z,7.70
2017-08-01T21:49:11.281Z,7.37
2017-08-01T21:51:38.672Z,7.50
2017-08-01T21:54:06.063Z,6.80
2017-08-01T21:56:33.463Z,7.30
2017-08-01T21:59:00.862Z,6.77
2017-08-01T22:01:28.263Z,6.50
2017-08-01T22:03:55.654Z,6.60
2017-08-01T22:06:23.060Z,7.77
2017-08-01T22:08:50.452Z,6.30
2017-08-01T22:11:17.846Z,6.10
2017-08-01T22:13:45.238Z,6.23
2017-08-01T22:16:12.655Z,7.50
2017-08-01T22:18:40.036Z,6.50
2017-08-01T22:21:07.470Z,6.30
2017-08-01T22:23:34.856Z,7.93
2017-08-01T22:26:02.259Z,8.17
2017-08-01T22:28:29.675Z,7.90
2017-08-01T22:30:57.104Z,7.30
2017-08-01T22:33:24.508Z,6.90
2017-08-01T22:35:51.887Z,8.70
2017-08-01T22:38:19.293Z,7.63
2017-08-01T22:40:46.688Z,8.10
2017-08-01T22:43:14.083Z,7.00
2017-08-01T22:45:41.480Z,7.50
2017-08-01T22:48:08.878Z,6.47
2017-08-01T22:50:36.265Z,9.03
2017-08-01T22:53:03.654Z,7.73
2017-08-01T22:55:31.052Z,8.27
2017-08-01T22:57:58.453Z,7.70
2017-08-01T23:00:25.850Z,7.43
2017-08-01T23:02:53.301Z,7.23
2017-08-01T23:05:20.687Z,6.90
2017-08-01T23:07:48.137Z,7.17
2017-08-01T23:10:15.751Z,7.57
2017-08-01T23:12:43.139Z,6.60
2017-08-01T23:15:10.551Z,7.20
2017-08-01T23:17:37.947Z,8.07
2017-08-01T23:20:05.350Z,7.17
2017-08-01T23:22:32.734Z,7.87
2017-08-01T23:25:00.130Z,7.57
2017-08-01T23:27:27.534Z,7.60
2017-08-01T23:29:54.925Z,8.00
2017-08-01T23:32:22.331Z,6.97
2017-08-01T23:34:49.727Z,7.87
2017-08-01T23:37:17.136Z,8.90
2017-08-01T23:39:44.535Z,7.90
2017-08-01T23:42:11.939Z,8.17
2017-08-01T23:44:39.356Z,8.47
2017-08-01T23:47:06.769Z,8.80
2017-08-01T23:49:34.147Z,8.00
2017-08-01T23:52:01.543Z,9.10
2017-08-01T23:54:28.944Z,8.83
2017-08-01T23:56:56.343Z,8.43
2017-08-01T23:59:23.745Z,8.00
